sensor_id;sensor_type;location;lat;lon;timestamp;temperature;humidity
2054;DHT22;1032;52.542;13.440;2023-01-10T00:01:27;9.10;99.90
2054;DHT22;1032;52.542;13.440;2023-01-10T00:03:54;9.50;99.90
2054;DHT22;1032;52.542;13.440;2023-01-10T00:06:22;8.60;99.90
2054;DHT22;1032;52.542;13.440;2023-01-10T00:08:48;9.20;99.90
2054;DHT22;1032;52.542;13.440;2023-01-10T00:11:15;8.90;99.90
2054;DHT22;1032;52.542;13.440;2023-01-10T00:13:59;9.10;99.90
2054;DHT22;1032;52.542;13.440;2023-01-10T00:16:26;8.40;99.90
2054;DHT22;1032;52.542;13.440;2023-01-10T00:18:52;9.20;99.90
2054;DHT22;1032;52.542;13.440;2023-01-10T00:21:19;9.10;99.90
2054;DHT22;1032;52.542;13.440;2023-01-10T00:23:47;9.50;99.90
2054;DHT22;1032;52.542;13.440;2023-01-10T00:26:14;9.00;99.90
2054;DHT22;1032;52.542;13.440;2023-01-10T00:28:41;9.30;99.90
2054;DHT22;1032;52.542;13.440;2023-01-10T00:31:08;8.70;99.90
2054;DHT22;1032;52.542;13.440;2023-01-10T00:33:36;9.20;99.90
2054;DHT22;1032;52.542;13.440;2023-01-10T00:36:05;9.10;99.90
2054;DHT22;1032;52.542;13.440;2023-01-10T00:38:33;8.90;99.90
2054;DHT22;1032;52.542;13.440;2023-01-10T00:41:03;8.90;99.90
2054;DHT22;1032;52.542;13.440;2023-01-10T00:43:51;9.10;99.90
2054;DHT22;1032;52.542;13.440;2023-01-10T00:46:22;9.20;99.90
2054;DHT22;1032;52.542;13.440;2023-01-10T00:48:49;9.20;99.90
2054;DHT22;1032;52.542;13.440;2023-01-10T00:51:15;9.00;99.90
2054;DHT22;1032;52.542;13.440;2023-01-10T00:53:42;8.60;99.90
2054;DHT22;1032;52.542;13.440;2023-01-10T00:56:10;9.10;99.90
2054;DHT22;1032;52.542;13.440;2023-01-10T00:58:36;9.10;99.90
2054;DHT22;1032;52.542;13.440;2023-01-10T01:01:03;9.00;99.90
2054;DHT22;1032;52.542;13.440;2023-01-10T01:03:30;9.30;99.90
2054;DHT22;1032;52.542;13.440;2023-01-10T01:05:56;9.10;99.90
2054;DHT22;1032;52.542;13.440;2023-01-10T01:08:23;9.30;99.90
2054;DHT22;1032;52.542;13.440;2023-01-10T01:10:49;9.00;99.90
2054;DHT22;1032;52.542;13.440;2023-01-10T01:13:19;9.00;99.90
2054;DHT22;1032;52.542;13.440;2023-01-10T01:15:46;8.90;99.90
2054;DHT22;1032;52.542;13.440;2023-01-10T01:18:16;8.90;99.90
2054;DHT22;1032;52.542;13.440;2023-01-10T01:20:43;8.80;99.90
2054;DHT22;1032;52.542;13.440;2023-01-10T01:23:10;8.70;99.90
2054;DHT22;1032;52.542;13.440;2023-01-10T01:25:38;8.70;99.90
2054;DHT22;1032;52.542;13.440;2023-01-10T01:28:04;8.90;99.90
2054;DHT22;1032;52.542;13.440;2023-01-10T01:30:32;8.90;99.90
2054;DHT22;1032;52.542;13.440;2023-01-10T01:32:59;8.90;99.90
2054;DHT22;1032;52.542;13.440;2023-01-10T01:35:25;8.80;99.90
2054;DHT22;1032;52.542;13.440;2023-01-10T01:37:52;9.00;99.90
2054;DHT22;1032;52.542;13.440;2023-01-10T01:40:20;8.70;99.90
2054;DHT22;1032;52.542;13.440;2023-01-10T01:42:47;8.60;99.90
2054;DHT22;1032;52.542;13.440;2023-01-10T01:45:34;8.90;99.90
2054;DHT22;1032;52.542;13.440;2023-01-10T01:48:09;8.80;99.90
2054;DHT22;1032;52.542;13.440;2023-01-10T01:50:41;8.50;99.90
2054;DHT22;1032;52.542;13.440;2023-01-10T01:53:12;8.60;99.90
2054;DHT22;1032;52.542;13.440;2023-01-10T01:55:41;8.30;99.90
2054;DHT22;1032;52.542;13.440;2023-01-10T01:58:12;8.50;99.90
2054;DHT22;1032;52.542;13.440;2023-01-10T02:00:41;8.20;99.90
2054;DHT22;1032;52.542;13.440;2023-01-10T02:03:08;8.60;99.90
2054;DHT22;1032;52.542;13.440;2023-01-10T02:05:38;7.90;99.90
2054;DHT22;1032;52.542;13.440;2023-01-10T02:08:06;8.60;99.90
2054;DHT22;1032;52.542;13.440;2023-01-10T02:10:37;8.40;99.90
2054;DHT22;1032;52.542;13.440;2023-01-10T02:13:07;8.40;99.90
2054;DHT22;1032;52.542;13.440;2023-01-10T02:15:34;8.50;99.90
2054;DHT22;1032;52.542;13.440;2023-01-10T02:18:03;8.40;99.90
2054;DHT22;1032;52.542;13.440;2023-01-10T02:20:37;8.30;99.90
2054;DHT22;1032;52.542;13.440;2023-01-10T02:23:22;8.30;99.90
2054;DHT22;1032;52.542;13.440;2023-01-10T02:26:39;8.20;99.90
2054;DHT22;1032;52.542;13.440;2023-01-10T02:32:19;8.30;99.90
2054;DHT22;1032;52.542;13.440;2023-01-10T02:34:56;8.30;99.90
2054;DHT22;1032;52.542;13.440;2023-01-10T02:37:38;8.10;99.90
2054;DHT22;1032;52.542;13.440;2023-01-10T02:40:13;8.20;99.90
2054;DHT22;1032;52.542;13.440;2023-01-10T02:42:48;8.00;99.90
2054;DHT22;1032;52.542;13.440;2023-01-10T02:45:20;7.90;99.90
2054;DHT22;1032;52.542;13.440;2023-01-10T02:47:50;8.10;99.90
2054;DHT22;1032;52.542;13.440;2023-01-10T02:50:36;8.00;99.90
2054;DHT22;1032;52.542;13.440;2023-01-10T02:53:10;8.20;99.90
2054;DHT22;1032;52.542;13.440;2023-01-10T02:55:53;8.20;99.90
2054;DHT22;1032;52.542;13.440;2023-01-10T02:58:32;8.20;99.90
2054;DHT22;1032;52.542;13.440;2023-01-10T03:01:08;8.20;99.90
2054;DHT22;1032;52.542;13.440;2023-01-10T03:03:41;8.20;99.90
2054;DHT22;1032;52.542;13.440;2023-01-10T03:06:20;7.60;99.90
2054;DHT22;1032;52.542;13.440;2023-01-10T03:08:52;7.70;99.90
2054;DHT22;1032;52.542;13.440;2023-01-10T03:11:22;8.20;99.90
2054;DHT22;1032;52.542;13.440;2023-01-10T03:14:09;8.50;99.90
2054;DHT22;1032;52.542;13.440;2023-01-10T03:16:39;8.00;99.90
2054;DHT22;1032;52.542;13.440;2023-01-10T03:19:09;8.10;99.90
2054;DHT22;1032;52.542;13.440;2023-01-10T03:21:38;8.40;99.90
2054;DHT22;1032;52.542;13.440;2023-01-10T03:24:09;8.30;99.90
2054;DHT22;1032;52.542;13.440;2023-01-10T03:26:44;8.20;99.90
2054;DHT22;1032;52.542;13.440;2023-01-10T03:29:14;8.20;99.90
2054;DHT22;1032;52.542;13.440;2023-01-10T03:31:46;7.80;99.90
2054;DHT22;1032;52.542;13.440;2023-01-10T03:34:15;8.50;99.90
2054;DHT22;1032;52.542;13.440;2023-01-10T03:36:46;8.20;99.90
2054;DHT22;1032;52.542;13.440;2023-01-10T03:39:19;8.80;99.90
2054;DHT22;1032;52.542;13.440;2023-01-10T03:41:51;8.30;99.90
2054;DHT22;1032;52.542;13.440;2023-01-10T03:44:25;8.40;99.90
2054;DHT22;1032;52.542;13.440;2023-01-10T03:47:12;8.40;99.90
2054;DHT22;1032;52.542;13.440;2023-01-10T03:49:43;8.60;99.90
2054;DHT22;1032;52.542;13.440;2023-01-10T03:52:14;8.50;99.90
2054;DHT22;1032;52.542;13.440;2023-01-10T03:54:41;8.40;99.90
2054;DHT22;1032;52.542;13.440;2023-01-10T03:57:14;8.20;99.90
2054;DHT22;1032;52.542;13.440;2023-01-10T03:59:42;8.40;99.90
2054;DHT22;1032;52.542;13.440;2023-01-10T04:02:08;8.30;99.90
2054;DHT22;1032;52.542;13.440;2023-01-10T04:04:35;8.50;99.90
2054;DHT22;1032;52.542;13.440;2023-01-10T04:07:03;8.60;99.90
2054;DHT22;1032;52.542;13.440;2023-01-10T04:09:29;8.60;99.90
2054;DHT22;1032;52.542;13.440;2023-01-10T04:11:56;8.60;99.90
2054;DHT22;1032;52.542;13.440;2023-01-10T04:14:22;8.20;99.90
2054;DHT22;1032;52.542;13.440;2023-01-10T04:16:49;8.40;99.90
2054;DHT22;1032;52.542;13.440;2023-01-10T04:19:16;7.90;99.90
2054;DHT22;1032;52.542;13.440;2023-01-10T04:21:42;8.60;99.90
2054;DHT22;1032;52.542;13.440;2023-01-10T04:24:10;8.50;99.90
2054;DHT22;1032;52.542;13.440;2023-01-10T04:26:37;8.70;99.90
2054;DHT22;1032;52.542;13.440;2023-01-10T04:29:04;8.70;99.90
2054;DHT22;1032;52.542;13.440;2023-01-10T04:31:30;8.70;99.90
2054;DHT22;1032;52.542;13.440;2023-01-10T04:33:57;8.40;99.90
2054;DHT22;1032;52.542;13.440;2023-01-10T04:36:24;7.90;99.90
2054;DHT22;1032;52.542;13.440;2023-01-10T04:38:52;8.50;99.90
2054;DHT22;1032;52.542;13.440;2023-01-10T04:41:20;8.70;99.90
2054;DHT22;1032;52.542;13.440;2023-01-10T04:43:46;8.40;99.90
2054;DHT22;1032;52.542;13.440;2023-01-10T04:46:14;8.40;99.90
2054;DHT22;1032;52.542;13.440;2023-01-10T04:48:40;8.90;99.90
2054;DHT22;1032;52.542;13.440;2023-01-10T04:51:07;8.30;99.90
2054;DHT22;1032;52.542;13.440;2023-01-10T04:53:33;8.60;99.90
2054;DHT22;1032;52.542;13.440;2023-01-10T04:56:04;8.30;99.90
2054;DHT22;1032;52.542;13.440;2023-01-10T04:58:33;8.50;99.90
2054;DHT22;1032;52.542;13.440;2023-01-10T05:01:06;7.80;99.90
2054;DHT22;1032;52.542;13.440;2023-01-10T05:03:33;8.20;99.90
2054;DHT22;1032;52.542;13.440;2023-01-10T05:06:00;8.50;99.90
2054;DHT22;1032;52.542;13.440;2023-01-10T05:08:26;7.80;99.90
2054;DHT22;1032;52.542;13.440;2023-01-10T05:10:53;8.40;99.90
2054;DHT22;1032;52.542;13.440;2023-01-10T05:13:19;8.00;99.90
2054;DHT22;1032;52.542;13.440;2023-01-10T05:15:47;7.70;99.90
2054;DHT22;1032;52.542;13.440;2023-01-10T05:18:14;8.40;99.90
2054;DHT22;1032;52.542;13.440;2023-01-10T05:20:40;8.50;99.90
2054;DHT22;1032;52.542;13.440;2023-01-10T05:23:07;8.30;99.90
2054;DHT22;1032;52.542;13.440;2023-01-10T05:25:33;8.30;99.90
2054;DHT22;1032;52.542;13.440;2023-01-10T05:28:00;8.50;99.90
2054;DHT22;1032;52.542;13.440;2023-01-10T05:30:27;7.90;99.90
2054;DHT22;1032;52.542;13.440;2023-01-10T05:32:54;8.50;99.90
2054;DHT22;1032;52.542;13.440;2023-01-10T05:35:21;8.50;99.90
2054;DHT22;1032;52.542;13.440;2023-01-10T05:37:48;9.10;99.90
2054;DHT22;1032;52.542;13.440;2023-01-10T05:40:14;8.30;99.90
2054;DHT22;1032;52.542;13.440;2023-01-10T05:42:41;8.30;99.90
2054;DHT22;1032;52.542;13.440;2023-01-10T05:45:08;8.50;99.90
2054;DHT22;1032;52.542;13.440;2023-01-10T05:47:35;8.60;99.90
2054;DHT22;1032;52.542;13.440;2023-01-10T05:50:04;8.50;99.90
2054;DHT22;1032;52.542;13.440;2023-01-10T05:52:30;8.40;99.90
2054;DHT22;1032;52.542;13.440;2023-01-10T05:54:57;8.20;99.90
2054;DHT22;1032;52.542;13.440;2023-01-10T05:57:23;8.70;99.90
2054;DHT22;1032;52.542;13.440;2023-01-10T05:59:50;8.60;99.90
2054;DHT22;1032;52.542;13.440;2023-01-10T06:02:17;8.60;99.90
2054;DHT22;1032;52.542;13.440;2023-01-10T06:04:43;9.10;99.90
2054;DHT22;1032;52.542;13.440;2023-01-10T06:07:11;8.70;99.90
2054;DHT22;1032;52.542;13.440;2023-01-10T06:09:38;8.60;99.90
2054;DHT22;1032;52.542;13.440;2023-01-10T06:12:05;8.60;99.90
2054;DHT22;1032;52.542;13.440;2023-01-10T06:14:31;8.40;99.90
2054;DHT22;1032;52.542;13.440;2023-01-10T06:16:58;8.50;99.90
2054;DHT22;1032;52.542;13.440;2023-01-10T06:19:24;8.50;99.90
2054;DHT22;1032;52.542;13.440;2023-01-10T06:21:51;8.70;99.90
2054;DHT22;1032;52.542;13.440;2023-01-10T06:24:19;8.50;99.90
2054;DHT22;1032;52.542;13.440;2023-01-10T06:26:45;9.00;99.90
2054;DHT22;1032;52.542;13.440;2023-01-10T06:29:12;8.50;99.90
2054;DHT22;1032;52.542;13.440;2023-01-10T06:31:39;8.40;99.90
2054;DHT22;1032;52.542;13.440;2023-01-10T06:34:05;8.30;99.90
2054;DHT22;1032;52.542;13.440;2023-01-10T06:36:32;8.30;99.90
2054;DHT22;1032;52.542;13.440;2023-01-10T06:38:59;8.00;99.90
2054;DHT22;1032;52.542;13.440;2023-01-10T06:41:27;8.30;99.90
2054;DHT22;1032;52.542;13.440;2023-01-10T06:43:54;8.40;99.90
2054;DHT22;1032;52.542;13.440;2023-01-10T06:46:20;8.20;99.90
2054;DHT22;1032;52.542;13.440;2023-01-10T06:48:48;8.40;99.90
2054;DHT22;1032;52.542;13.440;2023-01-10T06:51:15;8.20;99.90
2054;DHT22;1032;52.542;13.440;2023-01-10T06:53:42;8.50;99.90
2054;DHT22;1032;52.542;13.440;2023-01-10T06:56:09;8.20;99.90
2054;DHT22;1032;52.542;13.440;2023-01-10T06:58:38;8.40;99.90
2054;DHT22;1032;52.542;13.440;2023-01-10T07:01:05;8.50;99.90
2054;DHT22;1032;52.542;13.440;2023-01-10T07:03:32;8.50;99.90
2054;DHT22;1032;52.542;13.440;2023-01-10T07:06:00;8.60;99.90
2054;DHT22;1032;52.542;13.440;2023-01-10T07:08:27;8.30;99.90
2054;DHT22;1032;52.542;13.440;2023-01-10T07:10:56;8.00;99.90
2054;DHT22;1032;52.542;13.440;2023-01-10T07:13:23;8.70;99.90
2054;DHT22;1032;52.542;13.440;2023-01-10T07:15:51;8.50;99.90
2054;DHT22;1032;52.542;13.440;2023-01-10T07:18:17;8.40;99.90
2054;DHT22;1032;52.542;13.440;2023-01-10T07:20:44;8.00;99.90
2054;DHT22;1032;52.542;13.440;2023-01-10T07:23:10;8.10;99.90
2054;DHT22;1032;52.542;13.440;2023-01-10T07:25:37;8.40;99.90
2054;DHT22;1032;52.542;13.440;2023-01-10T07:28:04;8.30;99.90
2054;DHT22;1032;52.542;13.440;2023-01-10T07:30:31;8.50;99.90
2054;DHT22;1032;52.542;13.440;2023-01-10T07:32:59;8.20;99.90
2054;DHT22;1032;52.542;13.440;2023-01-10T07:35:28;8.40;99.90
2054;DHT22;1032;52.542;13.440;2023-01-10T07:37:57;8.60;99.90
2054;DHT22;1032;52.542;13.440;2023-01-10T07:40:24;8.60;99.90
2054;DHT22;1032;52.542;13.440;2023-01-10T07:42:55;8.40;99.90
2054;DHT22;1032;52.542;13.440;2023-01-10T07:45:22;8.60;99.90
2054;DHT22;1032;52.542;13.440;2023-01-10T07:47:48;8.40;99.90
2054;DHT22;1032;52.542;13.440;2023-01-10T07:50:16;8.40;99.90
2054;DHT22;1032;52.542;13.440;2023-01-10T07:52:43;8.80;99.90
2054;DHT22;1032;52.542;13.440;2023-01-10T07:55:10;8.50;99.90
2054;DHT22;1032;52.542;13.440;2023-01-10T07:57:37;8.60;99.90
2054;DHT22;1032;52.542;13.440;2023-01-10T08:00:04;8.70;99.90
2054;DHT22;1032;52.542;13.440;2023-01-10T08:02:31;8.50;99.90
2054;DHT22;1032;52.542;13.440;2023-01-10T08:04:58;8.20;99.90
2054;DHT22;1032;52.542;13.440;2023-01-10T08:07:27;8.90;99.90
2054;DHT22;1032;52.542;13.440;2023-01-10T08:09:54;9.10;99.90
2054;DHT22;1032;52.542;13.440;2023-01-10T08:12:21;8.30;99.90
2054;DHT22;1032;52.542;13.440;2023-01-10T08:14:49;8.60;99.90
2054;DHT22;1032;52.542;13.440;2023-01-10T08:17:15;8.90;99.90
2054;DHT22;1032;52.542;13.440;2023-01-10T08:19:42;8.50;99.90
2054;DHT22;1032;52.542;13.440;2023-01-10T08:22:09;9.40;99.90
2054;DHT22;1032;52.542;13.440;2023-01-10T08:24:37;9.20;99.90
2054;DHT22;1032;52.542;13.440;2023-01-10T08:27:03;8.80;99.90
2054;DHT22;1032;52.542;13.440;2023-01-10T08:29:30;8.80;99.90
2054;DHT22;1032;52.542;13.440;2023-01-10T08:31:57;9.10;99.90
2054;DHT22;1032;52.542;13.440;2023-01-10T08:34:24;9.10;99.90
2054;DHT22;1032;52.542;13.440;2023-01-10T08:36:52;8.90;99.90
2054;DHT22;1032;52.542;13.440;2023-01-10T08:39:19;8.50;99.90
2054;DHT22;1032;52.542;13.440;2023-01-10T08:41:48;8.50;99.90
2054;DHT22;1032;52.542;13.440;2023-01-10T08:44:15;9.30;99.90
2054;DHT22;1032;52.542;13.440;2023-01-10T08:46:41;8.90;99.90
2054;DHT22;1032;52.542;13.440;2023-01-10T08:49:08;9.20;99.90
2054;DHT22;1032;52.542;13.440;2023-01-10T08:51:35;9.00;99.90
2054;DHT22;1032;52.542;13.440;2023-01-10T08:54:02;9.00;99.90
2054;DHT22;1032;52.542;13.440;2023-01-10T08:56:28;8.40;99.90
2054;DHT22;1032;52.542;13.440;2023-01-10T08:58:57;8.60;99.90
2054;DHT22;1032;52.542;13.440;2023-01-10T09:01:23;8.90;99.90
2054;DHT22;1032;52.542;13.440;2023-01-10T09:03:50;9.40;99.90
2054;DHT22;1032;52.542;13.440;2023-01-10T09:06:17;9.50;99.90
2054;DHT22;1032;52.542;13.440;2023-01-10T09:08:43;9.60;99.90
2054;DHT22;1032;52.542;13.440;2023-01-10T09:11:10;9.60;99.90
2054;DHT22;1032;52.542;13.440;2023-01-10T09:13:37;9.60;99.90
2054;DHT22;1032;52.542;13.440;2023-01-10T09:16:06;9.30;99.90
2054;DHT22;1032;52.542;13.440;2023-01-10T09:18:32;9.40;99.90
2054;DHT22;1032;52.542;13.440;2023-01-10T09:20:59;9.60;99.90
2054;DHT22;1032;52.542;13.440;2023-01-10T09:23:27;9.70;99.90
2054;DHT22;1032;52.542;13.440;2023-01-10T09:25:54;9.60;99.90
2054;DHT22;1032;52.542;13.440;2023-01-10T09:28:22;8.90;99.90
2054;DHT22;1032;52.542;13.440;2023-01-10T09:30:49;9.20;99.90
2054;DHT22;1032;52.542;13.440;2023-01-10T09:33:18;9.70;99.90
2054;DHT22;1032;52.542;13.440;2023-01-10T09:35:45;9.40;99.90
2054;DHT22;1032;52.542;13.440;2023-01-10T09:38:13;9.70;99.90
2054;DHT22;1032;52.542;13.440;2023-01-10T09:40:54;9.00;99.90
2054;DHT22;1032;52.542;13.440;2023-01-10T09:43:30;9.30;99.90
2054;DHT22;1032;52.542;13.440;2023-01-10T09:46:03;9.70;99.90
2054;DHT22;1032;52.542;13.440;2023-01-10T09:48:36;9.10;99.90
2054;DHT22;1032;52.542;13.440;2023-01-10T09:51:23;9.50;99.90
2054;DHT22;1032;52.542;13.440;2023-01-10T09:53:57;9.60;99.90
2054;DHT22;1032;52.542;13.440;2023-01-10T09:56:25;9.60;99.90
2054;DHT22;1032;52.542;13.440;2023-01-10T09:58:53;9.20;99.90
2054;DHT22;1032;52.542;13.440;2023-01-10T10:01:22;9.50;99.90
2054;DHT22;1032;52.542;13.440;2023-01-10T10:03:56;10.10;99.90
2054;DHT22;1032;52.542;13.440;2023-01-10T10:06:25;9.70;99.90
2054;DHT22;1032;52.542;13.440;2023-01-10T10:08:52;9.70;99.90
2054;DHT22;1032;52.542;13.440;2023-01-10T10:11:35;9.70;99.90
2054;DHT22;1032;52.542;13.440;2023-01-10T10:14:06;9.50;99.90
2054;DHT22;1032;52.542;13.440;2023-01-10T10:16:46;9.80;99.90
2054;DHT22;1032;52.542;13.440;2023-01-10T10:19:22;10.10;99.90
2054;DHT22;1032;52.542;13.440;2023-01-10T10:21:57;9.80;99.90
2054;DHT22;1032;52.542;13.440;2023-01-10T10:24:35;10.40;99.90
2054;DHT22;1032;52.542;13.440;2023-01-10T10:27:13;9.90;99.90
2054;DHT22;1032;52.542;13.440;2023-01-10T10:33:00;10.10;99.90
2054;DHT22;1032;52.542;13.440;2023-01-10T10:35:35;10.10;99.90
2054;DHT22;1032;52.542;13.440;2023-01-10T10:38:04;10.00;99.90
2054;DHT22;1032;52.542;13.440;2023-01-10T10:40:37;9.90;99.90
2054;DHT22;1032;52.542;13.440;2023-01-10T10:43:16;9.50;99.90
2054;DHT22;1032;52.542;13.440;2023-01-10T10:45:49;9.70;99.90
2054;DHT22;1032;52.542;13.440;2023-01-10T10:48:20;9.70;99.90
2054;DHT22;1032;52.542;13.440;2023-01-10T10:50:59;9.80;99.90
2054;DHT22;1032;52.542;13.440;2023-01-10T10:53:28;9.90;99.90
2054;DHT22;1032;52.542;13.440;2023-01-10T10:55:57;9.80;99.90
2054;DHT22;1032;52.542;13.440;2023-01-10T10:58:24;10.50;99.90
2054;DHT22;1032;52.542;13.440;2023-01-10T11:00:55;9.50;99.90
2054;DHT22;1032;52.542;13.440;2023-01-10T11:03:31;10.20;99.90
2054;DHT22;1032;52.542;13.440;2023-01-10T11:06:01;10.10;99.90
2054;DHT22;1032;52.542;13.440;2023-01-10T11:08:29;10.60;99.90
2054;DHT22;1032;52.542;13.440;2023-01-10T11:10:57;10.50;99.90
2054;DHT22;1032;52.542;13.440;2023-01-10T11:13:40;10.60;99.90
2054;DHT22;1032;52.542;13.440;2023-01-10T11:16:23;10.20;99.90
2054;DHT22;1032;52.542;13.440;2023-01-10T11:21:53;10.40;99.90
2054;DHT22;1032;52.542;13.440;2023-01-10T11:24:31;11.00;99.90
2054;DHT22;1032;52.542;13.440;2023-01-10T11:27:01;10.50;99.90
2054;DHT22;1032;52.542;13.440;2023-01-10T11:29:36;11.00;99.90
2054;DHT22;1032;52.542;13.440;2023-01-10T11:32:08;10.00;99.90
2054;DHT22;1032;52.542;13.440;2023-01-10T11:34:39;10.50;99.90
2054;DHT22;1032;52.542;13.440;2023-01-10T11:37:24;10.10;99.90
2054;DHT22;1032;52.542;13.440;2023-01-10T11:40:20;10.60;99.90
2054;DHT22;1032;52.542;13.440;2023-01-10T11:42:49;10.60;99.90
2054;DHT22;1032;52.542;13.440;2023-01-10T11:45:25;10.60;99.90
2054;DHT22;1032;52.542;13.440;2023-01-10T11:47:55;10.60;99.90
2054;DHT22;1032;52.542;13.440;2023-01-10T11:50:24;10.50;99.90
2054;DHT22;1032;52.542;13.440;2023-01-10T11:52:54;10.80;99.90
2054;DHT22;1032;52.542;13.440;2023-01-10T11:55:23;10.70;99.90
2054;DHT22;1032;52.542;13.440;2023-01-10T11:57:56;10.80;99.90
2054;DHT22;1032;52.542;13.440;2023-01-10T12:00:30;10.70;99.90
2054;DHT22;1032;52.542;13.440;2023-01-10T12:02:58;10.70;99.90
2054;DHT22;1032;52.542;13.440;2023-01-10T12:05:26;11.00;99.90
2054;DHT22;1032;52.542;13.440;2023-01-10T12:07:55;10.50;99.90
2054;DHT22;1032;52.542;13.440;2023-01-10T12:10:24;10.70;99.90
2054;DHT22;1032;52.542;13.440;2023-01-10T12:12:55;10.60;99.90
2054;DHT22;1032;52.542;13.440;2023-01-10T12:15:24;10.10;99.90
2054;DHT22;1032;52.542;13.440;2023-01-10T12:17:52;10.80;99.90
2054;DHT22;1032;52.542;13.440;2023-01-10T12:20:21;10.60;99.90
2054;DHT22;1032;52.542;13.440;2023-01-10T12:22:51;10.90;99.90
2054;DHT22;1032;52.542;13.440;2023-01-10T12:25:23;10.40;99.90
2054;DHT22;1032;52.542;13.440;2023-01-10T12:27:52;10.60;99.90
2054;DHT22;1032;52.542;13.440;2023-01-10T12:30:30;9.90;99.90
2054;DHT22;1032;52.542;13.440;2023-01-10T12:33:00;10.30;99.90
2054;DHT22;1032;52.542;13.440;2023-01-10T12:35:37;10.20;99.90
2054;DHT22;1032;52.542;13.440;2023-01-10T12:38:19;10.60;99.90
2054;DHT22;1032;52.542;13.440;2023-01-10T12:40:54;10.10;99.90
2054;DHT22;1032;52.542;13.440;2023-01-10T12:43:28;10.60;99.90
2054;DHT22;1032;52.542;13.440;2023-01-10T12:46:21;10.20;99.90
2054;DHT22;1032;52.542;13.440;2023-01-10T12:48:51;10.30;99.90
2054;DHT22;1032;52.542;13.440;2023-01-10T12:51:22;10.30;99.90
2054;DHT22;1032;52.542;13.440;2023-01-10T12:53:54;10.10;99.90
2054;DHT22;1032;52.542;13.440;2023-01-10T12:56:23;10.70;99.90
2054;DHT22;1032;52.542;13.440;2023-01-10T12:58:53;10.10;99.90
2054;DHT22;1032;52.542;13.440;2023-01-10T13:01:26;10.20;99.90
2054;DHT22;1032;52.542;13.440;2023-01-10T13:03:55;10.80;99.90
2054;DHT22;1032;52.542;13.440;2023-01-10T13:06:30;10.50;99.90
2054;DHT22;1032;52.542;13.440;2023-01-10T13:08:59;10.70;99.90
2054;DHT22;1032;52.542;13.440;2023-01-10T13:11:34;10.10;99.90
2054;DHT22;1032;52.542;13.440;2023-01-10T13:14:04;10.50;99.90
2054;DHT22;1032;52.542;13.440;2023-01-10T13:16:37;10.80;99.90
2054;DHT22;1032;52.542;13.440;2023-01-10T13:19:23;10.80;99.90
2054;DHT22;1032;52.542;13.440;2023-01-10T13:21:54;10.30;99.90
2054;DHT22;1032;52.542;13.440;2023-01-10T13:24:37;10.50;99.90
2054;DHT22;1032;52.542;13.440;2023-01-10T13:27:05;10.20;99.90
2054;DHT22;1032;52.542;13.440;2023-01-10T13:29:38;10.70;99.90
2054;DHT22;1032;52.542;13.440;2023-01-10T13:32:19;10.40;99.90
2054;DHT22;1032;52.542;13.440;2023-01-10T13:34:47;10.20;99.90
2054;DHT22;1032;52.542;13.440;2023-01-10T13:37:21;10.30;99.90
2054;DHT22;1032;52.542;13.440;2023-01-10T13:39:51;10.20;99.90
2054;DHT22;1032;52.542;13.440;2023-01-10T13:42:30;10.20;99.90
2054;DHT22;1032;52.542;13.440;2023-01-10T13:45:18;10.90;99.90
2054;DHT22;1032;52.542;13.440;2023-01-10T13:48:02;10.30;99.90
2054;DHT22;1032;52.542;13.440;2023-01-10T13:50:56;10.40;99.90
2054;DHT22;1032;52.542;13.440;2023-01-10T13:53:56;10.20;99.90
2054;DHT22;1032;52.542;13.440;2023-01-10T13:56:37;10.10;99.90
2054;DHT22;1032;52.542;13.440;2023-01-10T13:59:12;10.40;99.90
2054;DHT22;1032;52.542;13.440;2023-01-10T14:01:58;10.60;99.90
2054;DHT22;1032;52.542;13.440;2023-01-10T14:04:49;10.50;99.90
2054;DHT22;1032;52.542;13.440;2023-01-10T14:07:22;10.70;99.90
2054;DHT22;1032;52.542;13.440;2023-01-10T14:09:50;9.70;99.90
2054;DHT22;1032;52.542;13.440;2023-01-10T14:12:22;10.60;99.90
2054;DHT22;1032;52.542;13.440;2023-01-10T14:14:55;10.00;99.90
2054;DHT22;1032;52.542;13.440;2023-01-10T14:17:24;10.10;99.90
2054;DHT22;1032;52.542;13.440;2023-01-10T14:22:56;9.80;99.90
2054;DHT22;1032;52.542;13.440;2023-01-10T14:25:25;9.80;99.90
2054;DHT22;1032;52.542;13.440;2023-01-10T14:27:53;9.90;99.90
2054;DHT22;1032;52.542;13.440;2023-01-10T14:30:26;10.10;99.90
2054;DHT22;1032;52.542;13.440;2023-01-10T14:32:55;9.80;99.90
2054;DHT22;1032;52.542;13.440;2023-01-10T14:35:25;9.80;99.90
2054;DHT22;1032;52.542;13.440;2023-01-10T14:37:55;9.20;99.90
2054;DHT22;1032;52.542;13.440;2023-01-10T14:40:28;9.70;99.90
2054;DHT22;1032;52.542;13.440;2023-01-10T14:42:55;9.70;99.90
2054;DHT22;1032;52.542;13.440;2023-01-10T14:45:34;9.70;99.90
2054;DHT22;1032;52.542;13.440;2023-01-10T14:48:27;9.30;99.90
2054;DHT22;1032;52.542;13.440;2023-01-10T14:51:18;9.70;99.90
2054;DHT22;1032;52.542;13.440;2023-01-10T14:53:46;9.50;99.90
2054;DHT22;1032;52.542;13.440;2023-01-10T14:56:18;9.40;99.90
2054;DHT22;1032;52.542;13.440;2023-01-10T14:58:44;9.40;99.90
2054;DHT22;1032;52.542;13.440;2023-01-10T15:01:17;9.20;99.90
2054;DHT22;1032;52.542;13.440;2023-01-10T15:03:46;9.30;99.90
2054;DHT22;1032;52.542;13.440;2023-01-10T15:06:13;9.10;99.90
2054;DHT22;1032;52.542;13.440;2023-01-10T15:08:40;9.60;99.90
2054;DHT22;1032;52.542;13.440;2023-01-10T15:11:08;9.80;99.90
2054;DHT22;1032;52.542;13.440;2023-01-10T15:13:43;9.50;99.90
2054;DHT22;1032;52.542;13.440;2023-01-10T15:16:14;9.60;99.90
2054;DHT22;1032;52.542;13.440;2023-01-10T15:18:43;9.60;99.90
2054;DHT22;1032;52.542;13.440;2023-01-10T15:21:12;9.40;99.90
2054;DHT22;1032;52.542;13.440;2023-01-10T15:23:41;9.40;99.90
2054;DHT22;1032;52.542;13.440;2023-01-10T15:26:10;9.00;99.90
2054;DHT22;1032;52.542;13.440;2023-01-10T15:28:39;9.60;99.90
2054;DHT22;1032;52.542;13.440;2023-01-10T15:31:07;9.30;99.90
2054;DHT22;1032;52.542;13.440;2023-01-10T15:33:37;9.10;99.90
2054;DHT22;1032;52.542;13.440;2023-01-10T15:36:13;9.20;99.90
2054;DHT22;1032;52.542;13.440;2023-01-10T15:38:43;9.00;99.90
2054;DHT22;1032;52.542;13.440;2023-01-10T15:41:16;9.10;99.90
2054;DHT22;1032;52.542;13.440;2023-01-10T15:43:44;9.60;99.90
2054;DHT22;1032;52.542;13.440;2023-01-10T15:46:18;9.40;99.90
2054;DHT22;1032;52.542;13.440;2023-01-10T15:48:55;9.50;99.90
2054;DHT22;1032;52.542;13.440;2023-01-10T15:51:26;9.20;99.90
2054;DHT22;1032;52.542;13.440;2023-01-10T15:53:55;9.30;99.90
2054;DHT22;1032;52.542;13.440;2023-01-10T15:56:30;9.40;99.90
2054;DHT22;1032;52.542;13.440;2023-01-10T15:58:57;9.00;99.90
2054;DHT22;1032;52.542;13.440;2023-01-10T16:01:25;9.00;99.90
2054;DHT22;1032;52.542;13.440;2023-01-10T16:03:54;9.00;99.90
2054;DHT22;1032;52.542;13.440;2023-01-10T16:06:24;8.70;99.90
2054;DHT22;1032;52.542;13.440;2023-01-10T16:08:53;9.10;99.90
2054;DHT22;1032;52.542;13.440;2023-01-10T16:11:23;8.60;99.90
2054;DHT22;1032;52.542;13.440;2023-01-10T16:14:08;8.90;99.90
2054;DHT22;1032;52.542;13.440;2023-01-10T16:16:35;9.30;99.90
2054;DHT22;1032;52.542;13.440;2023-01-10T16:19:03;9.10;99.90
2054;DHT22;1032;52.542;13.440;2023-01-10T16:21:34;9.30;99.90
2054;DHT22;1032;52.542;13.440;2023-01-10T16:24:02;9.00;99.90
2054;DHT22;1032;52.542;13.440;2023-01-10T16:26:29;9.10;99.90
2054;DHT22;1032;52.542;13.440;2023-01-10T16:28:56;9.00;99.90
2054;DHT22;1032;52.542;13.440;2023-01-10T16:31:23;8.80;99.90